sensor_id;sensor_type;location;lat;lon;timestamp;temperature;humidity
14555;DHT22;7364;50.870;4.722;2023-10-09T00:02:13;18.10;99.90
14555;DHT22;7364;50.870;4.722;2023-10-09T00:04:40;18.10;99.90
14555;DHT22;7364;50.870;4.722;2023-10-09T00:07:11;18.10;99.90
14555;DHT22;7364;50.870;4.722;2023-10-09T00:09:38;18.00;99.90
14555;DHT22;7364;50.870;4.722;2023-10-09T00:12:16;18.00;99.90
14555;DHT22;7364;50.870;4.722;2023-10-09T00:14:50;18.00;99.90
14555;DHT22;7364;50.870;4.722;2023-10-09T00:17:21;18.10;99.90
14555;DHT22;7364;50.870;4.722;2023-10-09T00:19:49;18.20;99.90
14555;DHT22;7364;50.870;4.722;2023-10-09T00:22:18;18.20;99.90
14555;DHT22;7364;50.870;4.722;2023-10-09T00:24:57;18.20;99.90
14555;DHT22;7364;50.870;4.722;2023-10-09T00:27:38;18.20;99.90
14555;DHT22;7364;50.870;4.722;2023-10-09T00:30:11;18.10;99.90
14555;DHT22;7364;50.870;4.722;2023-10-09T00:32:41;18.20;99.90
14555;DHT22;7364;50.870;4.722;2023-10-09T00:35:25;18.20;99.90
14555;DHT22;7364;50.870;4.722;2023-10-09T00:38:13;18.30;99.90
14555;DHT22;7364;50.870;4.722;2023-10-09T00:40:50;18.40;99.90
14555;DHT22;7364;50.870;4.722;2023-10-09T00:43:23;18.50;99.90
14555;DHT22;7364;50.870;4.722;2023-10-09T00:45:59;18.50;99.90
14555;DHT22;7364;50.870;4.722;2023-10-09T00:48:28;18.50;99.90
14555;DHT22;7364;50.870;4.722;2023-10-09T00:51:04;18.30;99.90
14555;DHT22;7364;50.870;4.722;2023-10-09T00:53:34;18.20;99.90
14555;DHT22;7364;50.870;4.722;2023-10-09T00:56:01;18.20;99.90
14555;DHT22;7364;50.870;4.722;2023-10-09T00:58:45;18.10;99.90
14555;DHT22;7364;50.870;4.722;2023-10-09T01:01:15;18.10;99.90
14555;DHT22;7364;50.870;4.722;2023-10-09T01:03:43;18.30;99.90
14555;DHT22;7364;50.870;4.722;2023-10-09T01:06:11;18.40;99.90
14555;DHT22;7364;50.870;4.722;2023-10-09T01:08:47;18.30;99.90
14555;DHT22;7364;50.870;4.722;2023-10-09T01:11:34;18.40;99.90
14555;DHT22;7364;50.870;4.722;2023-10-09T01:14:13;18.40;99.90
14555;DHT22;7364;50.870;4.722;2023-10-09T01:16:42;18.50;99.90
14555;DHT22;7364;50.870;4.722;2023-10-09T01:19:10;18.50;99.90
14555;DHT22;7364;50.870;4.722;2023-10-09T01:21:47;18.40;99.90
14555;DHT22;7364;50.870;4.722;2023-10-09T01:24:17;18.30;99.90
14555;DHT22;7364;50.870;4.722;2023-10-09T01:26:46;18.40;99.90
14555;DHT22;7364;50.870;4.722;2023-10-09T01:29:16;18.30;99.90
14555;DHT22;7364;50.870;4.722;2023-10-09T01:31:46;18.30;99.90
14555;DHT22;7364;50.870;4.722;2023-10-09T01:34:21;18.40;99.90
14555;DHT22;7364;50.870;4.722;2023-10-09T01:36:53;18.30;99.90
14555;DHT22;7364;50.870;4.722;2023-10-09T01:39:23;18.30;99.90
14555;DHT22;7364;50.870;4.722;2023-10-09T01:41:52;18.50;99.90
14555;DHT22;7364;50.870;4.722;2023-10-09T01:44:26;18.40;99.90
14555;DHT22;7364;50.870;4.722;2023-10-09T01:46:54;18.40;99.90
14555;DHT22;7364;50.870;4.722;2023-10-09T01:49:24;18.40;99.90
14555;DHT22;7364;50.870;4.722;2023-10-09T01:51:57;18.40;99.90
14555;DHT22;7364;50.870;4.722;2023-10-09T01:54:31;18.40;99.90
14555;DHT22;7364;50.870;4.722;2023-10-09T01:57:03;18.40;99.90
14555;DHT22;7364;50.870;4.722;2023-10-09T01:59:36;18.50;99.90
14555;DHT22;7364;50.870;4.722;2023-10-09T02:02:10;18.50;99.90
14555;DHT22;7364;50.870;4.722;2023-10-09T02:04:58;18.50;99.90
14555;DHT22;7364;50.870;4.722;2023-10-09T02:07:35;18.50;99.90
14555;DHT22;7364;50.870;4.722;2023-10-09T02:10:12;18.30;99.90
14555;DHT22;7364;50.870;4.722;2023-10-09T02:12:51;18.30;99.90
14555;DHT22;7364;50.870;4.722;2023-10-09T02:15:23;18.30;99.90
14555;DHT22;7364;50.870;4.722;2023-10-09T02:18:04;18.30;99.90
14555;DHT22;7364;50.870;4.722;2023-10-09T02:20:43;18.30;99.90
14555;DHT22;7364;50.870;4.722;2023-10-09T02:23:12;18.30;99.90
14555;DHT22;7364;50.870;4.722;2023-10-09T02:25:42;18.30;99.90
14555;DHT22;7364;50.870;4.722;2023-10-09T02:28:10;18.30;99.90
14555;DHT22;7364;50.870;4.722;2023-10-09T02:30:44;18.40;99.90
14555;DHT22;7364;50.870;4.722;2023-10-09T02:33:13;18.30;99.90
14555;DHT22;7364;50.870;4.722;2023-10-09T02:35:46;18.20;99.90
14555;DHT22;7364;50.870;4.722;2023-10-09T02:38:17;18.20;99.90
14555;DHT22;7364;50.870;4.722;2023-10-09T02:40:51;18.10;99.90
14555;DHT22;7364;50.870;4.722;2023-10-09T02:43:35;18.00;99.90
14555;DHT22;7364;50.870;4.722;2023-10-09T02:46:11;17.90;99.90
14555;DHT22;7364;50.870;4.722;2023-10-09T02:48:44;17.80;99.90
14555;DHT22;7364;50.870;4.722;2023-10-09T02:51:17;17.80;99.90
14555;DHT22;7364;50.870;4.722;2023-10-09T02:53:59;17.70;99.90
14555;DHT22;7364;50.870;4.722;2023-10-09T02:56:36;17.70;99.90
14555;DHT22;7364;50.870;4.722;2023-10-09T02:59:09;17.90;99.90
14555;DHT22;7364;50.870;4.722;2023-10-09T03:01:40;18.10;99.90
14555;DHT22;7364;50.870;4.722;2023-10-09T03:04:08;18.10;99.90
14555;DHT22;7364;50.870;4.722;2023-10-09T03:06:38;18.10;99.90
14555;DHT22;7364;50.870;4.722;2023-10-09T03:09:09;18.10;99.90
14555;DHT22;7364;50.870;4.722;2023-10-09T03:11:46;18.10;99.90
14555;DHT22;7364;50.870;4.722;2023-10-09T03:14:13;18.00;99.90
14555;DHT22;7364;50.870;4.722;2023-10-09T03:16:41;17.80;99.90
14555;DHT22;7364;50.870;4.722;2023-10-09T03:19:09;17.70;99.90
14555;DHT22;7364;50.870;4.722;2023-10-09T03:21:39;17.70;99.90
14555;DHT22;7364;50.870;4.722;2023-10-09T03:24:07;18.00;99.90
14555;DHT22;7364;50.870;4.722;2023-10-09T03:26:35;18.10;99.90
14555;DHT22;7364;50.870;4.722;2023-10-09T03:29:04;18.10;99.90
14555;DHT22;7364;50.870;4.722;2023-10-09T03:31:36;18.10;99.90
14555;DHT22;7364;50.870;4.722;2023-10-09T03:34:04;17.90;99.90
14555;DHT22;7364;50.870;4.722;2023-10-09T03:36:32;17.70;99.90
14555;DHT22;7364;50.870;4.722;2023-10-09T03:39:05;17.60;99.90
14555;DHT22;7364;50.870;4.722;2023-10-09T03:41:46;17.60;99.90
14555;DHT22;7364;50.870;4.722;2023-10-09T03:44:16;17.50;99.90
14555;DHT22;7364;50.870;4.722;2023-10-09T03:46:45;17.70;99.90
14555;DHT22;7364;50.870;4.722;2023-10-09T03:49:12;17.60;99.90
14555;DHT22;7364;50.870;4.722;2023-10-09T03:51:48;17.70;99.90
14555;DHT22;7364;50.870;4.722;2023-10-09T03:54:16;17.60;99.90
14555;DHT22;7364;50.870;4.722;2023-10-09T03:56:46;17.60;99.90
14555;DHT22;7364;50.870;4.722;2023-10-09T03:59:17;17.70;99.90
14555;DHT22;7364;50.870;4.722;2023-10-09T04:01:46;17.70;99.90
14555;DHT22;7364;50.870;4.722;2023-10-09T04:04:14;17.80;99.90
14555;DHT22;7364;50.870;4.722;2023-10-09T04:06:41;17.80;99.90
14555;DHT22;7364;50.870;4.722;2023-10-09T04:09:10;17.70;99.90
14555;DHT22;7364;50.870;4.722;2023-10-09T04:11:55;17.60;99.90
14555;DHT22;7364;50.870;4.722;2023-10-09T04:14:41;17.60;99.90
14555;DHT22;7364;50.870;4.722;2023-10-09T04:17:16;17.60;99.90
14555;DHT22;7364;50.870;4.722;2023-10-09T04:20:07;17.60;99.90
14555;DHT22;7364;50.870;4.722;2023-10-09T04:22:57;17.60;99.90
14555;DHT22;7364;50.870;4.722;2023-10-09T04:25:32;17.70;99.90
14555;DHT22;7364;50.870;4.722;2023-10-09T04:28:09;17.60;99.90
14555;DHT22;7364;50.870;4.722;2023-10-09T04:30:46;17.50;99.90
14555;DHT22;7364;50.870;4.722;2023-10-09T04:33:19;17.60;99.90
14555;DHT22;7364;50.870;4.722;2023-10-09T04:36:07;17.50;99.90
14555;DHT22;7364;50.870;4.722;2023-10-09T04:38:47;17.20;99.90
14555;DHT22;7364;50.870;4.722;2023-10-09T04:41:21;17.30;99.90
14555;DHT22;7364;50.870;4.722;2023-10-09T04:43:58;17.40;99.90
14555;DHT22;7364;50.870;4.722;2023-10-09T04:46:46;17.60;99.90
14555;DHT22;7364;50.870;4.722;2023-10-09T04:49:36;17.70;99.90
14555;DHT22;7364;50.870;4.722;2023-10-09T04:52:16;17.60;99.90
14555;DHT22;7364;50.870;4.722;2023-10-09T04:54:57;17.60;99.90
14555;DHT22;7364;50.870;4.722;2023-10-09T04:57:44;17.70;99.90
14555;DHT22;7364;50.870;4.722;2023-10-09T05:00:27;17.80;99.90
14555;DHT22;7364;50.870;4.722;2023-10-09T05:03:14;17.70;99.90
14555;DHT22;7364;50.870;4.722;2023-10-09T05:05:54;17.70;99.90
14555;DHT22;7364;50.870;4.722;2023-10-09T05:08:47;17.70;99.90
14555;DHT22;7364;50.870;4.722;2023-10-09T05:11:14;17.80;99.90
14555;DHT22;7364;50.870;4.722;2023-10-09T05:13:58;17.80;99.90
14555;DHT22;7364;50.870;4.722;2023-10-09T05:16:37;17.80;99.90
14555;DHT22;7364;50.870;4.722;2023-10-09T05:19:21;17.80;99.90
14555;DHT22;7364;50.870;4.722;2023-10-09T05:22:09;17.70;99.90
14555;DHT22;7364;50.870;4.722;2023-10-09T05:24:43;17.70;99.90
14555;DHT22;7364;50.870;4.722;2023-10-09T05:27:13;17.80;99.90
14555;DHT22;7364;50.870;4.722;2023-10-09T05:30:07;17.80;99.90
14555;DHT22;7364;50.870;4.722;2023-10-09T05:32:51;17.70;99.90
14555;DHT22;7364;50.870;4.722;2023-10-09T05:35:23;17.50;99.90
14555;DHT22;7364;50.870;4.722;2023-10-09T05:38:07;17.50;99.90
14555;DHT22;7364;50.870;4.722;2023-10-09T05:40:50;17.50;99.90
14555;DHT22;7364;50.870;4.722;2023-10-09T05:43:20;17.50;99.90
14555;DHT22;7364;50.870;4.722;2023-10-09T05:46:01;17.40;99.90
14555;DHT22;7364;50.870;4.722;2023-10-09T05:48:35;17.50;99.90
14555;DHT22;7364;50.870;4.722;2023-10-09T05:51:21;17.50;99.90
14555;DHT22;7364;50.870;4.722;2023-10-09T05:54:05;17.50;99.90
14555;DHT22;7364;50.870;4.722;2023-10-09T05:56:50;17.50;99.90
14555;DHT22;7364;50.870;4.722;2023-10-09T05:59:46;17.50;99.90
14555;DHT22;7364;50.870;4.722;2023-10-09T06:02:30;17.70;99.90
14555;DHT22;7364;50.870;4.722;2023-10-09T06:05:15;17.70;99.90
14555;DHT22;7364;50.870;4.722;2023-10-09T06:08:01;17.70;99.90
14555;DHT22;7364;50.870;4.722;2023-10-09T06:10:33;17.60;99.90
14555;DHT22;7364;50.870;4.722;2023-10-09T06:13:07;17.70;99.90
14555;DHT22;7364;50.870;4.722;2023-10-09T06:15:55;17.50;99.90
14555;DHT22;7364;50.870;4.722;2023-10-09T06:18:40;17.70;99.90
14555;DHT22;7364;50.870;4.722;2023-10-09T06:21:07;17.70;99.90
14555;DHT22;7364;50.870;4.722;2023-10-09T06:24:07;17.60;99.90
14555;DHT22;7364;50.870;4.722;2023-10-09T06:26:43;17.60;99.90
14555;DHT22;7364;50.870;4.722;2023-10-09T06:29:38;17.60;99.90
14555;DHT22;7364;50.870;4.722;2023-10-09T06:32:18;17.50;99.90
14555;DHT22;7364;50.870;4.722;2023-10-09T06:35:04;17.60;99.90
14555;DHT22;7364;50.870;4.722;2023-10-09T06:37:44;17.70;99.90
14555;DHT22;7364;50.870;4.722;2023-10-09T06:40:31;17.80;99.90
14555;DHT22;7364;50.870;4.722;2023-10-09T06:43:19;17.90;99.90
14555;DHT22;7364;50.870;4.722;2023-10-09T06:45:55;17.90;99.90
14555;DHT22;7364;50.870;4.722;2023-10-09T06:48:24;18.00;99.90
14555;DHT22;7364;50.870;4.722;2023-10-09T06:51:22;18.10;99.90
14555;DHT22;7364;50.870;4.722;2023-10-09T06:54:07;18.10;99.90
14555;DHT22;7364;50.870;4.722;2023-10-09T06:56:36;18.00;99.90
14555;DHT22;7364;50.870;4.722;2023-10-09T06:59:29;18.00;99.90
14555;DHT22;7364;50.870;4.722;2023-10-09T07:02:09;18.00;99.90
14555;DHT22;7364;50.870;4.722;2023-10-09T07:04:56;18.10;99.90
14555;DHT22;7364;50.870;4.722;2023-10-09T07:07:37;18.10;99.90
14555;DHT22;7364;50.870;4.722;2023-10-09T07:10:17;18.00;99.90
14555;DHT22;7364;50.870;4.722;2023-10-09T07:12:56;17.90;99.90
14555;DHT22;7364;50.870;4.722;2023-10-09T07:15:24;18.20;99.90
14555;DHT22;7364;50.870;4.722;2023-10-09T07:18:20;18.40;99.90
14555;DHT22;7364;50.870;4.722;2023-10-09T07:20:49;18.30;99.90
14555;DHT22;7364;50.870;4.722;2023-10-09T07:23:25;18.40;99.90
14555;DHT22;7364;50.870;4.722;2023-10-09T07:26:05;18.10;99.90
14555;DHT22;7364;50.870;4.722;2023-10-09T07:28:50;18.30;99.90
14555;DHT22;7364;50.870;4.722;2023-10-09T07:31:27;18.50;99.90
14555;DHT22;7364;50.870;4.722;2023-10-09T07:33:54;18.50;99.90
14555;DHT22;7364;50.870;4.722;2023-10-09T07:36:25;18.60;99.90
14555;DHT22;7364;50.870;4.722;2023-10-09T07:39:04;18.50;99.90
14555;DHT22;7364;50.870;4.722;2023-10-09T07:41:42;18.50;99.90
14555;DHT22;7364;50.870;4.722;2023-10-09T07:44:29;18.60;99.90
14555;DHT22;7364;50.870;4.722;2023-10-09T07:47:09;18.80;99.90
14555;DHT22;7364;50.870;4.722;2023-10-09T07:49:54;18.80;99.90
14555;DHT22;7364;50.870;4.722;2023-10-09T07:52:25;18.90;99.90
14555;DHT22;7364;50.870;4.722;2023-10-09T07:54:53;19.00;99.90
14555;DHT22;7364;50.870;4.722;2023-10-09T07:57:30;18.90;99.90
14555;DHT22;7364;50.870;4.722;2023-10-09T08:00:07;19.10;99.90
14555;DHT22;7364;50.870;4.722;2023-10-09T08:03:00;19.20;99.90
14555;DHT22;7364;50.870;4.722;2023-10-09T08:05:28;19.50;99.90
14555;DHT22;7364;50.870;4.722;2023-10-09T08:08:00;19.80;99.90
14555;DHT22;7364;50.870;4.722;2023-10-09T08:10:52;19.80;99.90
14555;DHT22;7364;50.870;4.722;2023-10-09T08:13:37;19.80;99.90
14555;DHT22;7364;50.870;4.722;2023-10-09T08:16:24;19.80;99.90
14555;DHT22;7364;50.870;4.722;2023-10-09T08:19:03;19.90;99.90
14555;DHT22;7364;50.870;4.722;2023-10-09T08:21:51;20.00;99.90
14555;DHT22;7364;50.870;4.722;2023-10-09T08:24:43;19.60;99.90
14555;DHT22;7364;50.870;4.722;2023-10-09T08:27:18;19.20;99.90
14555;DHT22;7364;50.870;4.722;2023-10-09T08:30:04;19.10;99.90
14555;DHT22;7364;50.870;4.722;2023-10-09T08:32:55;18.90;99.90
14555;DHT22;7364;50.870;4.722;2023-10-09T08:35:29;18.90;99.90
14555;DHT22;7364;50.870;4.722;2023-10-09T08:37:56;19.10;99.90
14555;DHT22;7364;50.870;4.722;2023-10-09T08:40:32;19.40;99.90
14555;DHT22;7364;50.870;4.722;2023-10-09T08:43:09;19.60;99.90
14555;DHT22;7364;50.870;4.722;2023-10-09T08:45:38;19.90;99.90
14555;DHT22;7364;50.870;4.722;2023-10-09T08:48:09;20.10;99.90
14555;DHT22;7364;50.870;4.722;2023-10-09T08:50:41;20.20;99.90
14555;DHT22;7364;50.870;4.722;2023-10-09T08:53:10;20.10;99.90
14555;DHT22;7364;50.870;4.722;2023-10-09T08:55:37;20.10;99.90
14555;DHT22;7364;50.870;4.722;2023-10-09T08:58:06;20.00;99.90
14555;DHT22;7364;50.870;4.722;2023-10-09T09:00:40;20.10;99.90
14555;DHT22;7364;50.870;4.722;2023-10-09T09:03:14;20.20;99.90
14555;DHT22;7364;50.870;4.722;2023-10-09T09:05:45;20.40;99.90
14555;DHT22;7364;50.870;4.722;2023-10-09T09:08:25;20.50;99.90
14555;DHT22;7364;50.870;4.722;2023-10-09T09:10:57;20.70;99.90
14555;DHT22;7364;50.870;4.722;2023-10-09T09:13:38;20.80;99.90
14555;DHT22;7364;50.870;4.722;2023-10-09T09:16:14;20.60;99.90
14555;DHT22;7364;50.870;4.722;2023-10-09T09:18:54;20.50;99.90
14555;DHT22;7364;50.870;4.722;2023-10-09T09:21:32;20.50;99.90
14555;DHT22;7364;50.870;4.722;2023-10-09T09:24:07;20.90;99.90
14555;DHT22;7364;50.870;4.722;2023-10-09T09:26:53;21.00;99.90
14555;DHT22;7364;50.870;4.722;2023-10-09T09:29:39;21.50;99.90
14555;DHT22;7364;50.870;4.722;2023-10-09T09:32:07;21.80;99.90
14555;DHT22;7364;50.870;4.722;2023-10-09T09:34:49;21.90;99.90
14555;DHT22;7364;50.870;4.722;2023-10-09T09:37:19;22.10;99.90
14555;DHT22;7364;50.870;4.722;2023-10-09T09:39:47;21.80;99.90
14555;DHT22;7364;50.870;4.722;2023-10-09T09:42:17;21.60;99.90
14555;DHT22;7364;50.870;4.722;2023-10-09T09:44:51;21.40;99.90
14555;DHT22;7364;50.870;4.722;2023-10-09T09:47:19;21.60;99.90
14555;DHT22;7364;50.870;4.722;2023-10-09T09:49:54;21.90;99.90
14555;DHT22;7364;50.870;4.722;2023-10-09T09:52:28;22.20;99.90
14555;DHT22;7364;50.870;4.722;2023-10-09T09:55:06;21.80;99.90
14555;DHT22;7364;50.870;4.722;2023-10-09T09:57:41;21.30;99.90
14555;DHT22;7364;50.870;4.722;2023-10-09T10:00:12;21.10;99.90
14555;DHT22;7364;50.870;4.722;2023-10-09T10:02:57;20.90;99.90
14555;DHT22;7364;50.870;4.722;2023-10-09T10:05:28;20.90;99.90
14555;DHT22;7364;50.870;4.722;2023-10-09T10:07:58;21.40;99.90
14555;DHT22;7364;50.870;4.722;2023-10-09T10:10:36;21.90;99.90
14555;DHT22;7364;50.870;4.722;2023-10-09T10:13:16;22.00;99.90
14555;DHT22;7364;50.870;4.722;2023-10-09T10:16:06;21.80;99.90
14555;DHT22;7364;50.870;4.722;2023-10-09T10:18:53;22.30;99.90
14555;DHT22;7364;50.870;4.722;2023-10-09T10:21:24;22.50;99.90
14555;DHT22;7364;50.870;4.722;2023-10-09T10:24:04;22.60;99.90
14555;DHT22;7364;50.870;4.722;2023-10-09T10:26:34;22.40;99.90
14555;DHT22;7364;50.870;4.722;2023-10-09T10:29:20;22.80;99.90
14555;DHT22;7364;50.870;4.722;2023-10-09T10:31:56;23.20;99.90
14555;DHT22;7364;50.870;4.722;2023-10-09T10:34:26;23.40;99.90
14555;DHT22;7364;50.870;4.722;2023-10-09T10:37:15;22.90;99.90
14555;DHT22;7364;50.870;4.722;2023-10-09T10:39:50;23.00;99.90
14555;DHT22;7364;50.870;4.722;2023-10-09T10:42:25;23.10;99.90
14555;DHT22;7364;50.870;4.722;2023-10-09T10:45:01;23.10;99.90
14555;DHT22;7364;50.870;4.722;2023-10-09T10:47:41;22.80;99.90
14555;DHT22;7364;50.870;4.722;2023-10-09T10:50:09;22.40;99.90
14555;DHT22;7364;50.870;4.722;2023-10-09T10:53:11;22.20;99.90
14555;DHT22;7364;50.870;4.722;2023-10-09T10:55:55;22.30;99.90
14555;DHT22;7364;50.870;4.722;2023-10-09T10:58:22;22.40;99.90
14555;DHT22;7364;50.870;4.722;2023-10-09T11:01:01;22.00;99.90
14555;DHT22;7364;50.870;4.722;2023-10-09T11:03:42;21.90;99.90
14555;DHT22;7364;50.870;4.722;2023-10-09T11:06:26;22.30;99.90
14555;DHT22;7364;50.870;4.722;2023-10-09T11:09:05;22.50;99.90
14555;DHT22;7364;50.870;4.722;2023-10-09T11:11:47;22.60;99.90
14555;DHT22;7364;50.870;4.722;2023-10-09T11:14:16;22.50;99.90
14555;DHT22;7364;50.870;4.722;2023-10-09T11:16:49;22.50;99.90
14555;DHT22;7364;50.870;4.722;2023-10-09T11:19:23;22.10;99.90
14555;DHT22;7364;50.870;4.722;2023-10-09T11:21:58;22.10;99.90
14555;DHT22;7364;50.870;4.722;2023-10-09T11:24:50;22.20;99.90
14555;DHT22;7364;50.870;4.722;2023-10-09T11:27:32;21.80;99.90
14555;DHT22;7364;50.870;4.722;2023-10-09T11:30:05;21.70;99.90
14555;DHT22;7364;50.870;4.722;2023-10-09T11:32:47;21.60;99.90
14555;DHT22;7364;50.870;4.722;2023-10-09T11:35:17;21.30;99.90
14555;DHT22;7364;50.870;4.722;2023-10-09T11:37:56;21.40;99.90
14555;DHT22;7364;50.870;4.722;2023-10-09T11:40:31;21.30;99.90
14555;DHT22;7364;50.870;4.722;2023-10-09T11:43:13;21.50;99.90
14555;DHT22;7364;50.870;4.722;2023-10-09T11:45:40;21.60;99.90
14555;DHT22;7364;50.870;4.722;2023-10-09T11:48:21;22.00;99.90
14555;DHT22;7364;50.870;4.722;2023-10-09T11:50:52;22.00;99.90
14555;DHT22;7364;50.870;4.722;2023-10-09T11:53:22;22.20;99.90
14555;DHT22;7364;50.870;4.722;2023-10-09T11:56:02;22.50;99.90
14555;DHT22;7364;50.870;4.722;2023-10-09T11:58:29;22.40;99.90
14555;DHT22;7364;50.870;4.722;2023-10-09T12:00:58;22.20;99.90
14555;DHT22;7364;50.870;4.722;2023-10-09T12:03:29;22.00;99.90
14555;DHT22;7364;50.870;4.722;2023-10-09T12:05:57;21.80;99.90
14555;DHT22;7364;50.870;4.722;2023-10-09T12:08:31;21.70;99.90
14555;DHT22;7364;50.870;4.722;2023-10-09T12:10:58;21.80;99.90
14555;DHT22;7364;50.870;4.722;2023-10-09T12:13:35;22.00;99.90
14555;DHT22;7364;50.870;4.722;2023-10-09T12:16:04;22.00;99.90
14555;DHT22;7364;50.870;4.722;2023-10-09T12:18:34;22.20;99.90
14555;DHT22;7364;50.870;4.722;2023-10-09T12:21:02;22.30;99.90
14555;DHT22;7364;50.870;4.722;2023-10-09T12:23:30;22.40;99.90
14555;DHT22;7364;50.870;4.722;2023-10-09T12:26:01;22.30;99.90
14555;DHT22;7364;50.870;4.722;2023-10-09T12:28:30;22.20;99.90
14555;DHT22;7364;50.870;4.722;2023-10-09T12:31:00;22.40;99.90
14555;DHT22;7364;50.870;4.722;2023-10-09T12:33:28;22.40;99.90
14555;DHT22;7364;50.870;4.722;2023-10-09T12:35:56;22.30;99.90
14555;DHT22;7364;50.870;4.722;2023-10-09T12:38:25;22.40;99.90
14555;DHT22;7364;50.870;4.722;2023-10-09T12:41:01;22.40;99.90
14555;DHT22;7364;50.870;4.722;2023-10-09T12:43:34;22.50;99.90
14555;DHT22;7364;50.870;4.722;2023-10-09T12:46:06;22.80;99.90
14555;DHT22;7364;50.870;4.722;2023-10-09T12:48:34;22.90;99.80
14555;DHT22;7364;50.870;4.722;2023-10-09T12:51:01;22.70;99.30
14555;DHT22;7364;50.870;4.722;2023-10-09T12:53:32;22.80;99.70
14555;DHT22;7364;50.870;4.722;2023-10-09T12:56:00;22.70;98.80
14555;DHT22;7364;50.870;4.722;2023-10-09T12:58:27;22.40;99.20
14555;DHT22;7364;50.870;4.722;2023-10-09T13:00:54;22.50;99.50
14555;DHT22;7364;50.870;4.722;2023-10-09T13:03:23;22.40;99.30
14555;DHT22;7364;50.870;4.722;2023-10-09T13:05:54;22.20;99.40
14555;DHT22;7364;50.870;4.722;2023-10-09T13:08:26;22.20;99.90
14555;DHT22;7364;50.870;4.722;2023-10-09T13:11:01;22.00;99.90
14555;DHT22;7364;50.870;4.722;2023-10-09T13:13:34;21.90;99.90
14555;DHT22;7364;50.870;4.722;2023-10-09T13:16:09;21.80;99.90
14555;DHT22;7364;50.870;4.722;2023-10-09T13:18:41;21.80;99.90
14555;DHT22;7364;50.870;4.722;2023-10-09T13:21:15;21.80;99.90
14555;DHT22;7364;50.870;4.722;2023-10-09T13:23:43;21.90;99.90
14555;DHT22;7364;50.870;4.722;2023-10-09T13:26:12;22.20;99.90
14555;DHT22;7364;50.870;4.722;2023-10-09T13:28:50;22.40;99.90
14555;DHT22;7364;50.870;4.722;2023-10-09T13:31:18;22.60;99.90
14555;DHT22;7364;50.870;4.722;2023-10-09T13:33:48;22.60;99.90
14555;DHT22;7364;50.870;4.722;2023-10-09T13:36:21;22.70;99.90
14555;DHT22;7364;50.870;4.722;2023-10-09T13:38:57;22.50;99.90
14555;DHT22;7364;50.870;4.722;2023-10-09T13:41:28;22.60;99.90
14555;DHT22;7364;50.870;4.722;2023-10-09T13:43:55;22.90;99.90
14555;DHT22;7364;50.870;4.722;2023-10-09T13:46:25;23.10;99.90
14555;DHT22;7364;50.870;4.722;2023-10-09T13:48:54;23.20;99.90
14555;DHT22;7364;50.870;4.722;2023-10-09T13:51:21;23.40;99.90
14555;DHT22;7364;50.870;4.722;2023-10-09T13:53:50;23.50;99.90
14555;DHT22;7364;50.870;4.722;2023-10-09T13:56:19;23.30;99.90
14555;DHT22;7364;50.870;4.722;2023-10-09T13:58:48;23.20;99.90
14555;DHT22;7364;50.870;4.722;2023-10-09T14:01:16;23.10;99.90
14555;DHT22;7364;50.870;4.722;2023-10-09T14:03:58;22.90;99.90
14555;DHT22;7364;50.870;4.722;2023-10-09T14:06:27;22.80;99.90
14555;DHT22;7364;50.870;4.722;2023-10-09T14:08:58;22.80;99.90
14555;DHT22;7364;50.870;4.722;2023-10-09T14:11:29;23.00;99.90
14555;DHT22;7364;50.870;4.722;2023-10-09T14:13:56;22.90;99.90
14555;DHT22;7364;50.870;4.722;2023-10-09T14:16:25;22.60;99.90
14555;DHT22;7364;50.870;4.722;2023-10-09T14:18:56;22.50;99.90
14555;DHT22;7364;50.870;4.722;2023-10-09T14:21:25;22.40;99.90
14555;DHT22;7364;50.870;4.722;2023-10-09T14:23:54;22.40;99.90
14555;DHT22;7364;50.870;4.722;2023-10-09T14:26:27;22.40;99.90
14555;DHT22;7364;50.870;4.722;2023-10-09T14:28:56;22.60;99.90
14555;DHT22;7364;50.870;4.722;2023-10-09T14:31:25;22.80;99.90
14555;DHT22;7364;50.870;4.722;2023-10-09T14:33:57;23.00;99.90
14555;DHT22;7364;50.870;4.722;2023-10-09T14:36:24;23.00;99.90
14555;DHT22;7364;50.870;4.722;2023-10-09T14:39:00;23.10;99.90
14555;DHT22;7364;50.870;4.722;2023-10-09T14:41:27;23.00;99.90
14555;DHT22;7364;50.870;4.722;2023-10-09T14:43:59;23.00;99.90
14555;DHT22;7364;50.870;4.722;2023-10-09T14:46:26;23.40;99.90
14555;DHT22;7364;50.870;4.722;2023-10-09T14:48:56;23.60;99.90
14555;DHT22;7364;50.870;4.722;2023-10-09T14:51:25;23.30;99.90
14555;DHT22;7364;50.870;4.722;2023-10-09T14:53:56;23.20;99.90
14555;DHT22;7364;50.870;4.722;2023-10-09T14:56:29;22.90;99.90
14555;DHT22;7364;50.870;4.722;2023-10-09T14:58:57;22.70;99.90
14555;DHT22;7364;50.870;4.722;2023-10-09T15:01:25;22.60;99.90
14555;DHT22;7364;50.870;4.722;2023-10-09T15:03:57;22.60;99.90
14555;DHT22;7364;50.870;4.722;2023-10-09T15:06:25;22.60;99.90
14555;DHT22;7364;50.870;4.722;2023-10-09T15:08:56;22.80;99.90
14555;DHT22;7364;50.870;4.722;2023-10-09T15:11:24;22.90;99.90
14555;DHT22;7364;50.870;4.722;2023-10-09T15:13:54;22.90;99.90
14555;DHT22;7364;50.870;4.722;2023-10-09T15:16:23;22.90;99.90
14555;DHT22;7364;50.870;4.722;2023-10-09T15:18:53;22.70;99.90
14555;DHT22;7364;50.870;4.722;2023-10-09T15:21:24;22.80;99.90
14555;DHT22;7364;50.870;4.722;2023-10-09T15:23:54;22.70;99.90
14555;DHT22;7364;50.870;4.722;2023-10-09T15:26:21;22.70;99.90
14555;DHT22;7364;50.870;4.722;2023-10-09T15:28:50;22.80;99.90
14555;DHT22;7364;50.870;4.722;2023-10-09T15:31:17;22.70;99.90
14555;DHT22;7364;50.870;4.722;2023-10-09T15:33:46;22.90;99.90
14555;DHT22;7364;50.870;4.722;2023-10-09T15:36:17;23.00;99.90
14555;DHT22;7364;50.870;4.722;2023-10-09T15:38:48;23.10;99.90
14555;DHT22;7364;50.870;4.722;2023-10-09T15:41:15;23.30;99.90
14555;DHT22;7364;50.870;4.722;2023-10-09T15:43:43;23.30;99.90
14555;DHT22;7364;50.870;4.722;2023-10-09T15:46:11;23.40;99.90
14555;DHT22;7364;50.870;4.722;2023-10-09T15:48:41;23.30;99.90
14555;DHT22;7364;50.870;4.722;2023-10-09T15:51:10;23.30;99.90
14555;DHT22;7364;50.870;4.722;2023-10-09T15:53:41;23.20;99.90
14555;DHT22;7364;50.870;4.722;2023-10-09T15:56:09;23.20;99.90
14555;DHT22;7364;50.870;4.722;2023-10-09T15:58:39;23.10;99.90
14555;DHT22;7364;50.870;4.722;2023-10-09T16:01:10;23.00;99.90
14555;DHT22;7364;50.870;4.722;2023-10-09T16:03:40;22.90;99.90
14555;DHT22;7364;50.870;4.722;2023-10-09T16:06:08;22.90;99.90
14555;DHT22;7364;50.870;4.722;2023-10-09T16:08:39;22.80;99.90
14555;DHT22;7364;50.870;4.722;2023-10-09T16:11:09;22.80;99.90
14555;DHT22;7364;50.870;4.722;2023-10-09T16:13:36;22.70;99.90
14555;DHT22;7364;50.870;4.722;2023-10-09T16:16:04;22.90;99.90
14555;DHT22;7364;50.870;4.722;2023-10-09T16:18:33;22.90;99.90
14555;DHT22;7364;50.870;4.722;2023-10-09T16:21:01;22.80;99.90
14555;DHT22;7364;50.870;4.722;2023-10-09T16:23:30;22.60;99.90
14555;DHT22;7364;50.870;4.722;2023-10-09T16:25:58;22.70;99.90
14555;DHT22;7364;50.870;4.722;2023-10-09T16:28:28;22.60;99.90
14555;DHT22;7364;50.870;4.722;2023-10-09T16:30:55;22.50;99.90
14555;DHT22;7364;50.870;4.722;2023-10-09T16:33:23;22.50;99.90